Time;durP1;ratioP1;P1;durP2;ratioP2;P2;SDS_P1;SDS_P2;PMS_P1;PMS_P2;Temp;Humidity;BMP_temperature;BMP_pressure;BME280_temperature;BME280_humidity;BME280_pressure;Samples;Min_cycle;Max_cycle;Signal;HPM_P1;HPM_P2
2022/07/18 00:02:13;;;;;;;4.33;3.53;;;18.90;99.90;;;;;;5033072;28;20450;-47
2022/07/18 00:04:40;;;;;;;4.10;3.50;;;18.90;99.90;;;;;;5032990;28;20626;-47
2022/07/18 00:07:10;;;;;;;4.30;3.90;;;19.00;99.90;;;;;;5033036;28;20474;-46
2022/07/18 00:09:37;;;;;;;4.40;4.00;;;19.00;99.90;;;;;;5032727;28;20537;-45
2022/07/18 00:12:05;;;;;;;6.93;4.37;;;18.80;99.90;;;;;;5033041;28;20454;-45
2022/07/18 00:14:33;;;;;;;4.60;3.63;;;18.60;99.90;;;;;;5032783;28;20824;-46
2022/07/18 00:17:00;;;;;;;6.10;3.80;;;18.70;99.90;;;;;;5032600;28;20466;-45
2022/07/18 00:19:27;;;;;;;4.00;3.60;;;18.80;99.90;;;;;;5032752;28;20536;-44
2022/07/18 00:21:54;;;;;;;4.53;4.10;;;18.90;99.90;;;;;;5032736;28;20508;-45
2022/07/18 00:24:22;;;;;;;3.70;3.40;;;18.90;99.90;;;;;;5032892;28;20505;-45
2022/07/18 00:26:49;;;;;;;4.43;3.23;;;18.90;99.90;;;;;;5032852;28;20506;-47
2022/07/18 00:29:16;;;;;;;4.43;4.03;;;18.90;99.90;;;;;;5032397;28;20422;-45
2022/07/18 00:31:43;;;;;;;4.00;3.67;;;18.90;99.90;;;;;;5032698;28;20940;-46
2022/07/18 00:34:10;;;;;;;3.80;3.40;;;18.90;99.90;;;;;;5032682;28;20442;-46
2022/07/18 00:36:37;;;;;;;3.77;3.47;;;18.90;99.90;;;;;;5032602;28;20524;-47
2022/07/18 00:39:04;;;;;;;4.47;3.77;;;18.60;99.90;;;;;;5032285;28;21024;-46
2022/07/18 00:41:33;;;;;;;3.87;3.50;;;18.70;99.90;;;;;;5032487;28;20442;-46
2022/07/18 00:44:00;;;;;;;4.17;3.77;;;18.70;99.90;;;;;;5032397;28;20846;-45
2022/07/18 00:46:29;;;;;;;4.53;4.00;;;18.60;99.90;;;;;;5031959;28;20547;-47
2022/07/18 00:48:57;;;;;;;6.73;4.20;;;18.70;99.90;;;;;;5032011;28;20438;-45
2022/07/18 00:51:24;;;;;;;3.90;3.50;;;18.70;99.90;;;;;;5032428;28;20446;-46
2022/07/18 00:53:51;;;;;;;4.83;3.80;;;18.70;99.90;;;;;;5032369;28;20442;-44
2022/07/18 00:56:19;;;;;;;3.83;3.43;;;18.70;99.90;;;;;;5032048;28;20520;-47
2022/07/18 00:58:48;;;;;;;4.80;4.07;;;18.70;99.90;;;;;;5031589;28;20454;-46
2022/07/18 01:04:00;;;;;;;3.50;3.20;;;18.50;99.90;;;;;;5032104;28;20421;-48
2022/07/18 01:06:27;;;;;;;4.57;4.17;;;18.60;99.90;;;;;;5032193;28;20600;-44
2022/07/18 01:08:54;;;;;;;4.97;4.50;;;18.60;99.90;;;;;;5031700;28;20458;-48
2022/07/18 01:11:21;;;;;;;4.00;3.70;;;18.40;99.90;;;;;;5031985;28;20478;-45
2022/07/18 01:13:50;;;;;;;4.40;4.00;;;18.30;99.90;;;;;;5031929;28;20523;-49
2022/07/18 01:16:18;;;;;;;6.63;4.60;;;18.30;99.90;;;;;;5031511;28;20536;-45
2022/07/18 01:18:46;;;;;;;4.20;3.80;;;18.40;99.90;;;;;;5031698;28;20516;-47
2022/07/18 01:21:16;;;;;;;4.20;3.80;;;18.40;99.90;;;;;;5031840;28;20469;-47
2022/07/18 01:23:43;;;;;;;4.33;3.90;;;18.50;99.90;;;;;;5031678;28;20493;-45
2022/07/18 01:26:11;;;;;;;3.90;3.33;;;18.60;99.90;;;;;;5031309;28;20478;-45
2022/07/18 01:28:39;;;;;;;4.63;4.23;;;18.60;99.90;;;;;;5031602;28;20438;-44
2022/07/18 01:31:06;;;;;;;4.70;4.30;;;18.50;99.90;;;;;;5031485;28;20442;-47
2022/07/18 01:33:34;;;;;;;4.07;3.77;;;18.60;99.90;;;;;;5031598;28;20528;-45
2022/07/18 01:36:01;;;;;;;4.07;3.70;;;18.50;99.90;;;;;;5031524;28;20533;-45
2022/07/18 01:38:31;;;;;;;4.27;3.77;;;18.60;99.90;;;;;;5031282;28;20438;-47
2022/07/18 01:40:58;;;;;;;4.87;4.33;;;18.60;99.90;;;;;;5031346;28;20826;-45
2022/07/18 01:43:26;;;;;;;4.30;3.90;;;18.50;99.90;;;;;;5031424;28;20503;-45
2022/07/18 01:45:54;;;;;;;4.00;3.50;;;18.50;99.90;;;;;;5031257;28;20548;-45
2022/07/18 01:48:22;;;;;;;4.13;3.83;;;18.60;99.90;;;;;;5031306;28;20528;-48
2022/07/18 01:50:51;;;;;;;5.43;4.50;;;18.60;99.90;;;;;;5030895;28;20435;-46
2022/07/18 01:53:18;;;;;;;5.20;3.80;;;18.50;99.90;;;;;;5031113;28;20508;-44
2022/07/18 01:55:47;;;;;;;4.47;4.07;;;18.50;99.90;;;;;;5030708;28;20466;-48
2022/07/18 01:58:14;;;;;;;4.03;3.60;;;18.50;99.90;;;;;;5030251;28;20446;-44
2022/07/18 02:00:41;;;;;;;4.60;4.20;;;18.40;99.90;;;;;;5030816;28;20459;-45
2022/07/18 02:03:08;;;;;;;4.43;4.03;;;18.30;99.90;;;;;;5030978;28;20516;-46
2022/07/18 02:05:35;;;;;;;4.73;4.33;;;18.30;99.90;;;;;;5030781;28;20478;-45
2022/07/18 02:08:02;;;;;;;4.13;3.57;;;18.30;99.90;;;;;;5030850;28;20450;-46
2022/07/18 02:10:29;;;;;;;5.60;4.33;;;18.30;99.90;;;;;;5030643;28;20469;-45
2022/07/18 02:12:57;;;;;;;7.03;3.93;;;18.30;99.90;;;;;;5030818;28;21037;-47
2022/07/18 02:15:26;;;;;;;3.87;3.43;;;18.20;99.90;;;;;;5030699;28;20447;-47
2022/07/18 02:17:53;;;;;;;4.77;4.10;;;18.00;99.90;;;;;;5030414;28;20533;-47
2022/07/18 02:20:20;;;;;;;4.43;4.03;;;18.00;99.90;;;;;;5030459;28;20446;-47
2022/07/18 02:22:47;;;;;;;4.03;3.70;;;18.00;99.90;;;;;;5030849;28;20438;-46
2022/07/18 02:25:14;;;;;;;4.20;3.67;;;17.90;99.90;;;;;;5030298;28;20462;-46
2022/07/18 02:27:41;;;;;;;5.67;4.83;;;18.00;99.90;;;;;;5030974;28;20455;-45
2022/07/18 02:30:11;;;;;;;5.97;4.03;;;18.00;99.90;;;;;;5030169;28;20430;-45
2022/07/18 02:32:38;;;;;;;4.53;4.00;;;18.00;99.90;;;;;;5030575;28;20491;-46
2022/07/18 02:35:07;;;;;;;4.23;3.93;;;18.00;99.90;;;;;;5030500;28;20438;-48
2022/07/18 02:37:37;;;;;;;5.13;3.73;;;18.00;99.90;;;;;;5030314;28;20470;-45
2022/07/18 02:40:06;;;;;;;4.27;3.87;;;18.00;99.90;;;;;;5030103;28;20439;-45
2022/07/18 02:42:33;;;;;;;4.50;3.80;;;18.00;99.90;;;;;;5030376;28;20446;-46
2022/07/18 02:45:00;;;;;;;4.33;4.00;;;18.00;99.90;;;;;;5030636;28;20485;-47
2022/07/18 02:47:28;;;;;;;4.90;3.77;;;18.00;99.90;;;;;;5030207;28;20462;-45
2022/07/18 02:49:55;;;;;;;4.47;4.07;;;17.90;99.90;;;;;;5030014;28;20450;-47
2022/07/18 02:52:23;;;;;;;4.57;3.90;;;17.90;99.90;;;;;;5030131;28;20858;-47
2022/07/18 02:54:50;;;;;;;4.20;3.90;;;17.90;99.90;;;;;;5030151;28;20502;-45
2022/07/18 02:57:17;;;;;;;5.37;4.97;;;17.90;99.90;;;;;;5029993;28;20525;-48
2022/07/18 02:59:45;;;;;;;5.23;4.30;;;17.90;99.90;;;;;;5029329;28;20427;-44
2022/07/18 03:02:12;;;;;;;4.63;4.23;;;17.90;99.90;;;;;;5029783;28;20937;-44
2022/07/18 03:04:40;;;;;;;4.00;3.60;;;17.90;99.90;;;;;;5030152;28;20676;-45
2022/07/18 03:07:07;;;;;;;4.00;3.60;;;18.00;99.90;;;;;;5029444;28;21010;-49
2022/07/18 03:09:34;;;;;;;4.73;3.90;;;17.90;99.90;;;;;;5029738;28;20504;-45
2022/07/18 03:12:01;;;;;;;4.63;4.23;;;17.90;99.90;;;;;;5029786;28;20431;-45
2022/07/18 03:14:28;;;;;;;5.03;4.20;;;17.70;99.90;;;;;;5029873;28;21037;-45
2022/07/18 03:16:55;;;;;;;4.30;3.90;;;17.70;99.90;;;;;;5029711;28;20461;-45
2022/07/18 03:19:22;;;;;;;5.00;4.57;;;17.70;99.90;;;;;;5029535;28;20840;-45
2022/07/18 03:21:51;;;;;;;4.40;4.00;;;17.70;99.90;;;;;;5029802;28;20446;-46
2022/07/18 03:24:18;;;;;;;4.03;3.73;;;17.70;99.90;;;;;;5029933;28;20454;-46
2022/07/18 03:26:45;;;;;;;4.37;3.93;;;17.70;99.90;;;;;;5103169;22;20993;-46
2022/07/18 03:29:13;;;;;;;4.23;3.83;;;17.70;99.90;;;;;;5068854;28;20779;-46
2022/07/18 03:31:40;;;;;;;4.50;4.10;;;17.60;99.90;;;;;;5069706;28;20499;-46
2022/07/18 03:34:08;;;;;;;4.50;3.80;;;17.70;99.90;;;;;;5069522;28;20436;-45
2022/07/18 03:36:35;;;;;;;4.63;4.13;;;17.60;99.90;;;;;;5069500;28;20467;-48
2022/07/18 03:39:04;;;;;;;4.37;4.07;;;17.50;99.90;;;;;;5069308;28;20445;-46
2022/07/18 03:41:31;;;;;;;6.50;4.50;;;17.50;99.90;;;;;;5069577;28;20449;-50
2022/07/18 03:43:59;;;;;;;3.97;3.67;;;17.50;99.90;;;;;;5069511;28;20490;-47
2022/07/18 03:46:26;;;;;;;5.90;4.30;;;17.60;99.90;;;;;;5069262;28;20475;-50
2022/07/18 03:48:53;;;;;;;4.70;4.30;;;17.50;99.90;;;;;;5069144;28;20444;-46
2022/07/18 03:51:20;;;;;;;4.90;4.40;;;17.60;99.90;;;;;;5069476;28;20498;-48
2022/07/18 03:53:47;;;;;;;4.43;4.07;;;17.50;99.90;;;;;;5069658;28;20999;-45
2022/07/18 03:56:15;;;;;;;4.07;3.67;;;17.60;99.90;;;;;;5069715;28;20492;-48
2022/07/18 03:58:43;;;;;;;5.20;4.70;;;17.70;99.90;;;;;;5068632;28;20459;-52
2022/07/18 04:01:11;;;;;;;5.13;4.63;;;17.70;99.90;;;;;;5069167;28;20779;-51
2022/07/18 04:03:38;;;;;;;6.17;4.43;;;17.70;99.90;;;;;;5069297;28;20949;-46
2022/07/18 04:06:05;;;;;;;5.20;4.80;;;17.70;99.90;;;;;;5069019;28;21054;-49
2022/07/18 04:08:33;;;;;;;6.17;4.60;;;17.70;99.90;;;;;;5069288;28;20522;-45
2022/07/18 04:11:00;;;;;;;5.13;4.63;;;17.70;99.90;;;;;;5069025;28;20439;-47
2022/07/18 04:13:28;;;;;;;4.50;4.00;;;17.70;99.90;;;;;;5069195;28;20866;-48
2022/07/18 04:15:55;;;;;;;5.10;4.43;;;17.70;99.90;;;;;;5069019;28;20453;-46
2022/07/18 04:18:22;;;;;;;4.57;4.17;;;17.70;99.90;;;;;;5069379;28;20448;-47
2022/07/18 04:20:49;;;;;;;5.20;4.33;;;17.70;99.90;;;;;;5071443;28;20447;-46
2022/07/18 04:23:18;;;;;;;3.97;3.67;;;17.70;99.90;;;;;;5073298;28;20845;-49
2022/07/18 04:25:45;;;;;;;5.33;4.80;;;17.70;99.90;;;;;;5072643;28;21043;-47
2022/07/18 04:28:14;;;;;;;4.50;4.07;;;17.70;99.90;;;;;;5072715;28;20448;-49
2022/07/18 04:30:44;;;;;;;5.00;4.60;;;17.70;99.90;;;;;;5072455;28;20452;-47
2022/07/18 04:33:12;;;;;;;5.60;5.10;;;17.60;99.90;;;;;;5072798;28;20916;-46
2022/07/18 04:35:41;;;;;;;5.40;4.10;;;17.50;99.90;;;;;;5072498;28;20464;-47
2022/07/18 04:38:10;;;;;;;5.43;4.37;;;17.50;99.90;;;;;;5072341;28;20469;-46
2022/07/18 04:40:38;;;;;;;4.37;3.97;;;17.50;99.90;;;;;;5072100;28;20452;-48
2022/07/18 04:43:05;;;;;;;5.00;4.40;;;17.50;99.90;;;;;;5072311;28;20863;-46
2022/07/18 04:45:32;;;;;;;4.90;4.50;;;17.50;99.90;;;;;;5072387;28;20452;-47
2022/07/18 04:48:01;;;;;;;5.17;4.70;;;17.30;99.90;;;;;;5072145;28;20957;-49
2022/07/18 04:50:29;;;;;;;5.40;5.00;;;17.20;99.90;;;;;;5072033;28;20444;-49
2022/07/18 04:52:57;;;;;;;4.63;4.23;;;17.30;99.90;;;;;;5072099;28;20429;-47
2022/07/18 04:55:25;;;;;;;4.70;4.20;;;17.30;99.90;;;;;;5072198;28;20444;-52
2022/07/18 04:57:52;;;;;;;5.07;4.43;;;17.40;99.90;;;;;;5071615;28;20518;-46
2022/07/18 05:00:21;;;;;;;4.57;4.17;;;17.40;99.90;;;;;;5072119;28;20521;-45
2022/07/18 05:02:50;;;;;;;4.77;4.27;;;17.50;99.90;;;;;;5071763;28;20448;-46
2022/07/18 05:05:19;;;;;;;4.80;4.40;;;17.50;99.90;;;;;;5071989;28;20437;-48
2022/07/18 05:07:48;;;;;;;5.73;5.23;;;17.40;99.90;;;;;;5071650;28;20571;-50
2022/07/18 05:10:16;;;;;;;6.07;4.43;;;17.40;99.90;;;;;;5071704;28;20829;-47
2022/07/18 05:12:45;;;;;;;4.70;4.30;;;17.50;99.90;;;;;;5072330;28;20497;-52
2022/07/18 05:15:14;;;;;;;4.57;3.93;;;17.50;99.90;;;;;;5071713;28;20510;-46
2022/07/18 05:17:42;;;;;;;5.53;4.80;;;17.40;99.90;;;;;;5071487;28;20511;-51
2022/07/18 05:20:11;;;;;;;5.20;4.70;;;17.40;99.90;;;;;;5071205;28;20906;-46
2022/07/18 05:22:41;;;;;;;4.63;4.23;;;17.40;99.90;;;;;;5071510;28;20436;-46
2022/07/18 05:25:09;;;;;;;5.23;4.80;;;17.50;99.90;;;;;;5071605;28;20452;-46
2022/07/18 05:27:37;;;;;;;5.10;4.70;;;17.50;99.90;;;;;;5071190;28;20503;-50
2022/07/18 05:30:05;;;;;;;6.27;4.93;;;17.60;99.90;;;;;;5071280;28;20457;-46
2022/07/18 05:32:31;;;;;;;6.27;5.67;;;17.60;99.90;;;;;;5071502;28;20992;-46
2022/07/18 05:34:58;;;;;;;8.43;6.57;;;17.50;99.90;;;;;;5071439;28;20863;-46
2022/07/18 05:37:25;;;;;;;6.30;5.80;;;17.20;99.90;;;;;;5071567;28;20514;-47
2022/07/18 05:39:54;;;;;;;7.37;6.67;;;16.90;99.90;;;;;;5071143;28;20506;-46
2022/07/18 05:42:21;;;;;;;8.00;7.20;;;16.70;99.90;;;;;;5071296;28;20514;-46
2022/07/18 05:44:48;;;;;;;8.70;7.00;;;16.60;99.90;;;;;;5071241;28;20448;-46
2022/07/18 05:47:15;;;;;;;6.13;5.63;;;16.50;99.90;;;;;;5070901;28;20507;-48
2022/07/18 05:49:42;;;;;;;7.40;6.70;;;16.70;99.90;;;;;;5070917;28;20511;-47
2022/07/18 05:52:09;;;;;;;7.20;6.50;;;16.70;99.90;;;;;;5071073;28;20498;-48
2022/07/18 05:54:36;;;;;;;7.53;6.70;;;16.90;99.90;;;;;;5070505;28;20448;-46
2022/07/18 05:57:05;;;;;;;7.93;6.87;;;16.90;99.90;;;;;;5069902;28;20472;-48
2022/07/18 05:59:32;;;;;;;7.20;6.60;;;16.70;99.90;;;;;;5068728;28;20448;-47
2022/07/18 06:01:59;;;;;;;7.80;7.10;;;16.80;99.90;;;;;;5070710;28;20436;-45
2022/07/18 06:04:26;;;;;;;7.47;6.77;;;16.80;99.90;;;;;;5070872;28;20444;-44
2022/07/18 06:06:53;;;;;;;6.73;6.13;;;16.90;99.90;;;;;;5070618;28;20500;-47
2022/07/18 06:09:20;;;;;;;5.90;5.30;;;16.90;99.90;;;;;;5070077;28;20445;-51
2022/07/18 06:11:47;;;;;;;6.27;5.40;;;17.00;99.90;;;;;;5070436;28;20522;-46
2022/07/18 06:14:16;;;;;;;5.80;5.30;;;17.50;99.90;;;;;;5070688;28;20452;-46
2022/07/18 06:16:43;;;;;;;5.30;4.80;;;18.40;99.90;;;;;;5070348;28;20469;-50
2022/07/18 06:19:10;;;;;;;7.13;5.50;;;19.40;99.90;;;;;;5070159;28;20441;-45
2022/07/18 06:21:37;;;;;;;5.80;5.20;;;20.30;99.90;;;;;;5070594;28;20468;-47
2022/07/18 06:24:04;;;;;;;5.77;4.80;;;21.10;99.90;;;;;;5070405;28;20456;-46
2022/07/18 06:26:31;;;;;;;6.40;5.37;;;21.50;99.90;;;;;;5070196;28;20547;-51
2022/07/18 06:28:58;;;;;;;7.17;6.47;;;21.60;99.90;;;;;;5070329;28;20473;-48
2022/07/18 06:31:27;;;;;;;8.27;7.57;;;21.60;99.90;;;;;;5070399;28;20859;-46
2022/07/18 06:33:54;;;;;;;8.63;7.77;;;21.40;99.90;;;;;;5070320;28;20449;-46
2022/07/18 06:36:23;;;;;;;7.50;6.90;;;21.20;99.90;;;;;;5070102;28;20506;-48
2022/07/18 06:38:50;;;;;;;5.80;5.30;;;20.80;99.90;;;;;;5070138;28;20450;-46
2022/07/18 06:41:17;;;;;;;7.57;6.00;;;20.40;99.90;;;;;;5070205;28;20440;-46
2022/07/18 06:43:44;;;;;;;7.30;5.77;;;20.20;99.90;;;;;;5069836;28;20449;-46
2022/07/18 06:46:12;;;;;;;6.37;5.67;;;20.20;99.90;;;;;;5069951;28;20818;-46
2022/07/18 06:48:40;;;;;;;6.50;5.87;;;20.00;99.90;;;;;;5070046;28;20445;-47
2022/07/18 06:51:08;;;;;;;7.87;6.00;;;19.90;99.90;;;;;;5069818;28;20436;-50
2022/07/18 06:53:35;;;;;;;5.40;4.90;;;19.80;99.90;;;;;;5070018;28;20445;-46
2022/07/18 06:56:03;;;;;;;9.87;4.50;;;19.70;99.90;;;;;;5069998;28;20460;-48
2022/07/18 06:58:31;;;;;;;5.40;4.90;;;19.60;99.90;;;;;;5069907;28;20440;-51
2022/07/18 07:00:58;;;;;;;5.80;5.30;;;19.60;99.90;;;;;;5069747;28;20543;-49
2022/07/18 07:03:25;;;;;;;5.10;4.70;;;19.70;99.90;;;;;;5069785;28;20455;-46
2022/07/18 07:05:54;;;;;;;6.70;4.57;;;19.70;99.90;;;;;;5069808;28;20484;-48
2022/07/18 07:08:21;;;;;;;5.83;5.27;;;19.70;99.90;;;;;;5069083;28;20483;-48
2022/07/18 07:10:48;;;;;;;4.53;4.20;;;19.70;99.90;;;;;;5069520;28;20472;-46
2022/07/18 07:13:15;;;;;;;5.43;5.03;;;19.80;99.90;;;;;;5069723;28;20451;-47
2022/07/18 07:15:42;;;;;;;5.80;5.30;;;19.80;99.90;;;;;;5069634;28;20448;-46
2022/07/18 07:18:10;;;;;;;5.10;4.60;;;19.90;99.90;;;;;;5069632;28;20444;-46
2022/07/18 07:20:37;;;;;;;5.77;5.23;;;19.90;99.90;;;;;;5069511;28;20951;-48
2022/07/18 07:23:07;;;;;;;5.80;5.17;;;19.90;99.90;;;;;;5069759;28;20501;-49
2022/07/18 07:25:35;;;;;;;5.47;4.97;;;19.90;99.90;;;;;;5069658;28;20437;-46
2022/07/18 07:28:02;;;;;;;7.40;5.30;;;19.90;99.90;;;;;;5069239;28;20525;-46
2022/07/18 07:30:29;;;;;;;5.73;5.20;;;19.90;99.90;;;;;;5069248;28;20440;-46
2022/07/18 07:32:56;;;;;;;5.80;5.30;;;19.80;99.90;;;;;;5069902;28;20441;-46
2022/07/18 07:35:24;;;;;;;5.70;5.20;;;19.90;99.90;;;;;;5069615;28;20474;-46
2022/07/18 07:37:52;;;;;;;5.60;5.10;;;20.00;99.90;;;;;;5069540;28;20491;-46
2022/07/18 07:40:21;;;;;;;6.00;5.50;;;20.20;99.90;;;;;;5069324;28;20448;-46
2022/07/18 07:42:48;;;;;;;5.83;5.23;;;20.60;99.90;;;;;;5069509;28;20448;-50
2022/07/18 07:45:16;;;;;;;5.47;4.97;;;20.80;99.90;;;;;;5069429;28;20506;-46
2022/07/18 07:47:43;;;;;;;5.10;4.70;;;21.10;99.90;;;;;;5069344;28;20472;-49
2022/07/18 07:50:12;;;;;;;6.37;4.60;;;21.10;99.90;;;;;;5069312;28;20474;-47
2022/07/18 07:52:39;;;;;;;5.50;4.97;;;21.30;99.90;;;;;;5069450;28;20443;-48
2022/07/18 07:55:07;;;;;;;5.90;5.00;;;21.50;99.90;;;;;;5070791;28;20452;-47
2022/07/18 07:57:36;;;;;;;5.73;5.23;;;21.60;99.90;;;;;;5073230;28;20456;-46
2022/07/18 08:00:06;;;;;;;5.23;4.83;;;21.80;99.70;;;;;;5072963;28;20502;-46
2022/07/18 08:02:33;;;;;;;5.10;4.60;;;22.00;99.60;;;;;;5073295;28;20452;-48
2022/07/18 08:05:00;;;;;;;5.67;5.07;;;22.20;98.80;;;;;;5073160;28;20456;-48
2022/07/18 08:07:27;;;;;;;6.10;5.50;;;22.40;98.50;;;;;;5072533;28;20467;-47
2022/07/18 08:09:54;;;;;;;4.77;4.37;;;22.50;98.90;;;;;;5072186;28;20444;-49
2022/07/18 08:12:21;;;;;;;4.97;4.57;;;22.40;97.90;;;;;;5072916;28;20476;-48
2022/07/18 08:14:51;;;;;;;4.17;3.87;;;22.60;97.60;;;;;;5072965;28;20451;-49
2022/07/18 08:17:18;;;;;;;4.87;4.40;;;22.80;96.70;;;;;;5072496;28;20483;-48
2022/07/18 08:19:45;;;;;;;5.30;4.90;;;23.00;96.90;;;;;;5072449;28;20479;-47
2022/07/18 08:22:12;;;;;;;4.80;4.40;;;23.20;96.90;;;;;;5072846;28;20452;-49
2022/07/18 08:24:39;;;;;;;9.60;6.80;;;23.10;97.50;;;;;;5072844;28;20432;-47
2022/07/18 08:27:06;;;;;;;5.80;5.23;;;23.10;97.10;;;;;;5072428;28;20480;-47
2022/07/18 08:29:33;;;;;;;6.07;5.57;;;23.20;97.80;;;;;;5072265;28;20512;-50
2022/07/18 08:32:02;;;;;;;5.40;5.00;;;23.30;97.70;;;;;;5072658;28;20448;-46
2022/07/18 08:34:29;;;;;;;5.23;4.77;;;23.40;96.60;;;;;;5072530;28;20452;-46
2022/07/18 08:36:56;;;;;;;6.17;5.57;;;23.50;97.50;;;;;;5072388;28;20452;-48
2022/07/18 08:39:23;;;;;;;5.30;4.80;;;23.60;96.80;;;;;;5072377;28;20444;-46
2022/07/18 08:41:52;;;;;;;6.70;5.10;;;23.60;96.70;;;;;;5072551;28;20445;-50
2022/07/18 08:44:20;;;;;;;5.00;4.60;;;23.80;96.50;;;;;;5072302;28;20845;-47
2022/07/18 08:46:53;;;;;;;5.30;4.90;;;23.90;97.60;;;;;;5072302;28;20464;-47
2022/07/18 08:49:23;;;;;;;5.80;5.10;;;24.00;96.10;;;;;;5071990;28;20440;-50
2022/07/18 08:51:50;;;;;;;4.80;4.40;;;24.10;96.30;;;;;;5072331;28;20483;-46
2022/07/18 08:54:17;;;;;;;5.43;4.93;;;24.10;96.80;;;;;;5072217;28;20907;-47
2022/07/18 08:56:44;;;;;;;5.90;5.33;;;24.20;96.30;;;;;;5072170;28;20514;-49
2022/07/18 08:59:11;;;;;;;5.93;5.43;;;24.30;97.70;;;;;;5071886;28;20440;-49
2022/07/18 09:01:38;;;;;;;5.83;5.37;;;24.40;97.60;;;;;;5072114;28;20453;-47
2022/07/18 09:04:19;;;;;;;5.20;4.70;;;24.30;97.10;;;;;;5072112;28;20690;-51
2022/07/18 09:06:52;;;;;;;5.07;4.67;;;24.20;96.70;;;;;;5071581;28;20448;-47
2022/07/18 09:09:19;;;;;;;5.50;5.10;;;24.20;97.00;;;;;;5071151;28;20476;-47
2022/07/18 09:11:54;;;;;;;5.30;4.47;;;24.20;96.90;;;;;;5071717;28;20998;-49
2022/07/18 09:14:39;;;;;;;5.03;4.53;;;24.30;98.10;;;;;;5071791;28;20506;-47
2022/07/18 09:17:09;;;;;;;5.33;4.50;;;24.50;98.00;;;;;;5071405;28;20448;-50
2022/07/18 09:19:37;;;;;;;5.53;5.00;;;24.60;97.70;;;;;;5071559;28;20925;-49
2022/07/18 09:22:16;;;;;;;5.27;4.67;;;24.60;97.30;;;;;;5071642;28;20437;-49
2022/07/18 09:25:01;;;;;;;5.87;5.10;;;24.70;97.60;;;;;;5071721;28;20448;-47
2022/07/18 09:27:34;;;;;;;5.23;4.73;;;24.90;98.80;;;;;;5072590;28;20495;-47
2022/07/18 09:30:26;;;;;;;5.43;5.00;;;25.00;97.20;;;;;;5071321;28;20494;-52
2022/07/18 09:33:05;;;;;;;5.03;4.63;;;24.70;95.70;;;;;;5071473;28;20433;-48
2022/07/18 09:35:34;;;;;;;5.13;4.73;;;24.60;95.60;;;;;;5071491;28;20452;-46
2022/07/18 09:38:05;;;;;;;5.20;4.70;;;24.50;95.30;;;;;;5071228;28;20467;-48
2022/07/18 09:40:34;;;;;;;6.67;4.93;;;24.50;96.00;;;;;;5070999;28;20445;-47
2022/07/18 09:43:03;;;;;;;5.10;4.60;;;24.70;95.20;;;;;;5071256;28;20484;-49
2022/07/18 09:45:33;;;;;;;4.60;4.20;;;24.90;95.50;;;;;;5071252;28;20452;-50
2022/07/18 09:48:01;;;;;;;4.70;4.30;;;25.00;95.00;;;;;;5071069;28;20468;-46
2022/07/18 09:50:34;;;;;;;5.37;4.87;;;25.10;93.90;;;;;;5070805;28;20471;-49
2022/07/18 09:53:15;;;;;;;4.50;4.10;;;25.20;95.30;;;;;;5070934;28;20520;-48
2022/07/18 09:55:47;;;;;;;5.27;4.87;;;25.10;94.10;;;;;;5070928;28;20490;-46
2022/07/18 09:58:18;;;;;;;4.47;4.07;;;25.10;93.70;;;;;;5071000;28;20464;-47
2022/07/18 10:00:46;;;;;;;4.60;4.20;;;25.10;94.00;;;;;;5070853;28;20544;-47
2022/07/18 10:03:13;;;;;;;5.00;4.60;;;25.20;93.80;;;;;;5070950;28;20445;-48
2022/07/18 10:05:43;;;;;;;4.83;4.23;;;25.30;93.90;;;;;;5070711;28;20529;-46
2022/07/18 10:08:13;;;;;;;5.80;4.60;;;25.40;93.40;;;;;;5070167;28;20472;-48
2022/07/18 10:10:42;;;;;;;6.20;4.40;;;25.40;93.40;;;;;;5070731;28;20505;-47
2022/07/18 10:13:10;;;;;;;5.70;5.00;;;25.40;92.90;;;;;;5070655;28;20452;-47
2022/07/18 10:15:39;;;;;;;23.27;5.33;;;25.40;93.70;;;;;;5070207;28;20860;-46
2022/07/18 10:18:07;;;;;;;5.00;4.30;;;25.60;93.90;;;;;;5069955;28;20767;-47
2022/07/18 10:20:38;;;;;;;4.97;4.57;;;25.60;93.40;;;;;;5070343;28;20788;-48
2022/07/18 10:23:21;;;;;;;4.43;4.10;;;25.70;93.10;;;;;;5070691;28;20558;-48
2022/07/18 10:26:11;;;;;;;5.30;4.47;;;25.70;93.20;;;;;;5070439;28;20525;-48
2022/07/18 10:29:08;;;;;;;29.83;6.70;;;25.60;93.30;;;;;;5070245;28;20559;-51
2022/07/18 10:31:38;;;;;;;4.20;3.80;;;25.60;91.80;;;;;;5068607;28;20448;-48
2022/07/18 10:34:11;;;;;;;5.30;4.67;;;25.60;92.30;;;;;;5070359;28;20539;-48
2022/07/18 10:36:40;;;;;;;4.80;4.40;;;25.60;92.70;;;;;;5069236;28;20526;-49
2022/07/18 10:39:13;;;;;;;4.40;3.80;;;25.70;91.00;;;;;;5069953;28;20467;-46
2022/07/18 10:42:14;;;;;;;5.47;4.47;;;25.70;90.80;;;;;;5068805;28;20952;-47
2022/07/18 10:44:41;;;;;;;4.93;3.73;;;25.90;91.40;;;;;;5070125;28;20424;-48
2022/07/18 10:47:11;;;;;;;4.60;4.23;;;25.90;91.10;;;;;;5070105;28;20464;-47
2022/07/18 10:50:06;;;;;;;4.97;4.50;;;26.00;91.30;;;;;;5069635;28;20511;-47
2022/07/18 10:53:03;;;;;;;4.67;4.27;;;26.10;91.50;;;;;;5068581;28;20863;-49
2022/07/18 10:55:33;;;;;;;4.47;3.93;;;26.20;91.60;;;;;;5007542;28;20813;-48
2022/07/18 10:58:22;;;;;;;4.23;3.87;;;26.20;90.80;;;;;;5056164;28;20469;-47
2022/07/18 11:01:00;;;;;;;6.70;4.30;;;26.20;90.80;;;;;;5069139;28;20833;-50
2022/07/18 11:03:29;;;;;;;4.30;3.23;;;26.30;90.70;;;;;;5070125;28;20456;-49
2022/07/18 11:05:57;;;;;;;6.03;4.00;;;26.30;88.20;;;;;;5069696;28;20435;-48
2022/07/18 11:08:25;;;;;;;4.17;3.73;;;26.30;87.60;;;;;;5069313;28;20525;-47
2022/07/18 11:11:16;;;;;;;4.90;4.40;;;26.40;87.80;;;;;;5069447;28;20437;-47
2022/07/18 11:13:49;;;;;;;5.27;4.00;;;26.40;90.00;;;;;;5069578;28;20531;-48
2022/07/18 11:16:19;;;;;;;7.90;3.40;;;26.50;90.10;;;;;;5069466;28;20686;-47
2022/07/18 11:19:22;;;;;;;4.37;3.70;;;26.50;89.20;;;;;;5069769;28;20441;-44
2022/07/18 11:21:59;;;;;;;3.73;3.27;;;26.60;88.60;;;;;;5069815;28;21014;-49
2022/07/18 11:24:27;;;;;;;4.10;3.70;;;26.70;82.90;;;;;;5069695;28;20436;-47
2022/07/18 11:26:56;;;;;;;4.47;4.07;;;26.80;85.20;;;;;;5069431;28;20468;-51
2022/07/18 11:29:23;;;;;;;3.90;3.60;;;26.80;87.00;;;;;;5071198;28;20480;-49
2022/07/18 11:31:52;;;;;;;5.20;3.73;;;26.90;85.90;;;;;;5073640;28;20486;-47
2022/07/18 11:34:19;;;;;;;3.30;3.00;;;27.00;80.70;;;;;;5073736;28;20506;-47
2022/07/18 11:36:48;;;;;;;6.07;3.00;;;27.00;81.10;;;;;;5073359;28;20891;-47
2022/07/18 11:39:16;;;;;;;6.77;2.53;;;27.00;79.50;;;;;;5073076;28;20994;-50
2022/07/18 11:41:43;;;;;;;3.23;2.63;;;27.10;82.40;;;;;;5073406;28;20851;-49
2022/07/18 11:44:26;;;;;;;3.70;3.27;;;27.30;77.10;;;;;;5073608;28;20949;-47
2022/07/18 11:47:05;;;;;;;2.80;2.60;;;27.40;80.00;;;;;;5073558;28;20504;-52
2022/07/18 11:49:33;;;;;;;6.13;3.27;;;27.30;79.70;;;;;;5073070;28;20972;-48
2022/07/18 11:52:00;;;;;;;4.67;3.20;;;27.40;78.40;;;;;;5073465;28;20445;-49
2022/07/18 11:54:28;;;;;;;3.27;2.97;;;27.40;80.90;;;;;;5073396;28;20949;-48
2022/07/18 11:56:56;;;;;;;3.77;3.37;;;27.50;78.20;;;;;;5073241;28;20858;-47
2022/07/18 11:59:36;;;;;;;4.17;3.10;;;27.50;80.50;;;;;;5072764;28;20494;-49
2022/07/18 12:02:03;;;;;;;4.07;2.90;;;27.50;82.00;;;;;;5073160;28;20448;-48
2022/07/18 12:04:30;;;;;;;3.77;2.87;;;27.50;79.00;;;;;;5073679;28;20455;-52
2022/07/18 12:07:14;;;;;;;3.20;2.90;;;27.50;78.40;;;;;;5073090;28;20968;-48
2022/07/18 12:09:41;;;;;;;3.00;2.50;;;27.60;79.00;;;;;;5072657;28;20452;-48
2022/07/18 12:12:10;;;;;;;3.30;3.00;;;27.70;74.30;;;;;;5073076;28;20859;-48
2022/07/18 12:14:38;;;;;;;2.70;2.47;;;27.70;75.70;;;;;;5073022;28;20571;-47
2022/07/18 12:17:06;;;;;;;138.87;22.90;;;27.80;75.60;;;;;;5072812;28;20875;-50
2022/07/18 12:19:35;;;;;;;4.17;3.73;;;27.80;75.40;;;;;;5072761;28;20988;-47
2022/07/18 12:22:07;;;;;;;66.30;9.10;;;27.80;73.80;;;;;;5072860;28;20440;-50
2022/07/18 12:24:36;;;;;;;42.40;8.60;;;27.80;75.40;;;;;;5072586;28;20429;-49
2022/07/18 12:27:20;;;;;;;30.43;7.30;;;27.80;74.70;;;;;;5072497;28;20547;-48
2022/07/18 12:30:11;;;;;;;13.03;4.57;;;27.90;75.60;;;;;;5072250;28;20525;-47
2022/07/18 12:32:43;;;;;;;3.80;3.50;;;28.00;74.40;;;;;;5072579;28;20930;-47
2022/07/18 12:35:12;;;;;;;104.07;16.40;;;28.10;71.30;;;;;;5072565;28;20525;-51
2022/07/18 12:37:39;;;;;;;5.60;2.57;;;28.10;72.30;;;;;;5072454;28;20468;-47
2022/07/18 12:40:10;;;;;;;55.03;8.57;;;28.10;74.00;;;;;;5071955;28;20823;-47
2022/07/18 12:42:40;;;;;;;10.87;3.00;;;28.10;72.60;;;;;;5072277;28;20859;-49
2022/07/18 12:45:10;;;;;;;26.33;6.20;;;28.20;74.20;;;;;;5072507;28;20449;-52
2022/07/18 12:47:37;;;;;;;45.60;8.60;;;28.20;69.50;;;;;;5072758;28;20511;-52
2022/07/18 12:50:05;;;;;;;47.80;8.53;;;28.30;71.10;;;;;;5071827;28;20468;-48
2022/07/18 12:52:33;;;;;;;70.63;10.90;;;28.30;69.80;;;;;;5072608;28;20656;-48
2022/07/18 12:55:00;;;;;;;73.20;9.30;;;28.30;70.40;;;;;;5072236;28;20938;-50
2022/07/18 12:57:27;;;;;;;26.97;6.53;;;28.40;70.60;;;;;;5072203;28;20555;-51
2022/07/18 12:59:54;;;;;;;30.53;6.27;;;28.50;70.30;;;;;;5071696;28;20453;-49